sensor_id;sensor_type;location;lat;lon;timestamp;temperature;humidity
63017;DHT22;50274;45.640;11.756;2023-03-01T00:02:06;6.20;53.20
63017;DHT22;50274;45.640;11.756;2023-03-01T00:04:32;6.20;53.20
63017;DHT22;50274;45.640;11.756;2023-03-01T00:06:58;6.20;53.20
63017;DHT22;50274;45.640;11.756;2023-03-01T00:09:23;6.10;53.30
63017;DHT22;50274;45.640;11.756;2023-03-01T00:11:49;6.10;53.30
63017;DHT22;50274;45.640;11.756;2023-03-01T00:14:15;6.10;53.40
63017;DHT22;50274;45.640;11.756;2023-03-01T00:16:45;6.00;53.40
63017;DHT22;50274;45.640;11.756;2023-03-01T00:19:14;6.00;53.50
63017;DHT22;50274;45.640;11.756;2023-03-01T00:21:40;6.00;53.50
63017;DHT22;50274;45.640;11.756;2023-03-01T00:24:06;5.90;53.60
63017;DHT22;50274;45.640;11.756;2023-03-01T00:26:32;5.90;53.60
63017;DHT22;50274;45.640;11.756;2023-03-01T00:28:59;5.90;53.70
63017;DHT22;50274;45.640;11.756;2023-03-01T00:31:29;5.90;53.70
63017;DHT22;50274;45.640;11.756;2023-03-01T00:33:57;5.90;53.80
63017;DHT22;50274;45.640;11.756;2023-03-01T00:36:27;5.80;53.80
63017;DHT22;50274;45.640;11.756;2023-03-01T00:38:54;5.80;53.90
63017;DHT22;50274;45.640;11.756;2023-03-01T00:41:20;5.80;53.90
63017;DHT22;50274;45.640;11.756;2023-03-01T00:43:48;5.70;54.00
63017;DHT22;50274;45.640;11.756;2023-03-01T00:46:18;5.70;54.00
63017;DHT22;50274;45.640;11.756;2023-03-01T00:48:45;5.70;54.10
63017;DHT22;50274;45.640;11.756;2023-03-01T00:51:13;5.70;54.10
63017;DHT22;50274;45.640;11.756;2023-03-01T00:53:40;5.60;54.20
63017;DHT22;50274;45.640;11.756;2023-03-01T00:56:07;5.60;54.20
63017;DHT22;50274;45.640;11.756;2023-03-01T00:58:34;5.60;54.30
63017;DHT22;50274;45.640;11.756;2023-03-01T01:01:00;5.60;54.30
63017;DHT22;50274;45.640;11.756;2023-03-01T01:03:26;5.50;54.30
63017;DHT22;50274;45.640;11.756;2023-03-01T01:05:53;5.50;54.40
63017;DHT22;50274;45.640;11.756;2023-03-01T01:08:20;5.40;54.40
63017;DHT22;50274;45.640;11.756;2023-03-01T01:10:46;5.40;54.50
63017;DHT22;50274;45.640;11.756;2023-03-01T01:13:12;5.40;54.60
63017;DHT22;50274;45.640;11.756;2023-03-01T01:15:38;5.30;54.70
63017;DHT22;50274;45.640;11.756;2023-03-01T01:18:04;5.30;54.70
63017;DHT22;50274;45.640;11.756;2023-03-01T01:20:31;5.30;54.80
63017;DHT22;50274;45.640;11.756;2023-03-01T01:22:57;5.30;54.80
63017;DHT22;50274;45.640;11.756;2023-03-01T01:25:23;5.20;54.90
63017;DHT22;50274;45.640;11.756;2023-03-01T01:27:51;5.20;54.90
63017;DHT22;50274;45.640;11.756;2023-03-01T01:30:17;5.20;55.10
63017;DHT22;50274;45.640;11.756;2023-03-01T01:32:42;5.20;55.10
63017;DHT22;50274;45.640;11.756;2023-03-01T01:35:08;5.10;55.10
63017;DHT22;50274;45.640;11.756;2023-03-01T01:37:34;5.20;55.20
63017;DHT22;50274;45.640;11.756;2023-03-01T01:40:01;5.10;55.20
63017;DHT22;50274;45.640;11.756;2023-03-01T01:42:29;5.10;55.30
63017;DHT22;50274;45.640;11.756;2023-03-01T01:45:34;5.10;55.30
63017;DHT22;50274;45.640;11.756;2023-03-01T01:48:04;5.10;55.30
63017;DHT22;50274;45.640;11.756;2023-03-01T01:50:33;5.20;55.40
63017;DHT22;50274;45.640;11.756;2023-03-01T01:53:16;5.10;55.30
63017;DHT22;50274;45.640;11.756;2023-03-01T01:55:46;5.10;55.40
63017;DHT22;50274;45.640;11.756;2023-03-01T01:58:17;5.20;55.40
63017;DHT22;50274;45.640;11.756;2023-03-01T02:00:43;5.10;55.40
63017;DHT22;50274;45.640;11.756;2023-03-01T02:03:12;5.10;55.40
63017;DHT22;50274;45.640;11.756;2023-03-01T02:08:29;5.10;55.50
63017;DHT22;50274;45.640;11.756;2023-03-01T02:10:57;5.10;55.60
63017;DHT22;50274;45.640;11.756;2023-03-01T02:13:26;5.10;55.60
63017;DHT22;50274;45.640;11.756;2023-03-01T02:15:52;5.20;55.60
63017;DHT22;50274;45.640;11.756;2023-03-01T02:18:21;5.20;55.60
63017;DHT22;50274;45.640;11.756;2023-03-01T02:21:00;5.20;55.60
63017;DHT22;50274;45.640;11.756;2023-03-01T02:23:29;5.20;55.60
63017;DHT22;50274;45.640;11.756;2023-03-01T02:28:30;5.20;55.60
63017;DHT22;50274;45.640;11.756;2023-03-01T02:30:57;5.20;55.60
63017;DHT22;50274;45.640;11.756;2023-03-01T02:33:41;5.30;55.60
63017;DHT22;50274;45.640;11.756;2023-03-01T02:36:20;5.30;55.70
63017;DHT22;50274;45.640;11.756;2023-03-01T02:38:48;5.30;55.60
63017;DHT22;50274;45.640;11.756;2023-03-01T02:41:17;5.30;55.70
63017;DHT22;50274;45.640;11.756;2023-03-01T02:43:44;5.30;55.70
63017;DHT22;50274;45.640;11.756;2023-03-01T02:46:19;5.30;55.80
63017;DHT22;50274;45.640;11.756;2023-03-01T02:48:50;5.30;55.80
63017;DHT22;50274;45.640;11.756;2023-03-01T02:56:48;5.30;55.90
63017;DHT22;50274;45.640;11.756;2023-03-01T02:59:17;5.30;56.00
63017;DHT22;50274;45.640;11.756;2023-03-01T03:01:43;5.30;56.00
63017;DHT22;50274;45.640;11.756;2023-03-01T03:04:13;5.30;56.10
63017;DHT22;50274;45.640;11.756;2023-03-01T03:06:45;5.30;56.10
63017;DHT22;50274;45.640;11.756;2023-03-01T03:09:12;5.30;56.20
63017;DHT22;50274;45.640;11.756;2023-03-01T03:11:38;5.30;56.20
63017;DHT22;50274;45.640;11.756;2023-03-01T03:14:10;5.40;56.40
63017;DHT22;50274;45.640;11.756;2023-03-01T03:16:49;5.40;56.40
63017;DHT22;50274;45.640;11.756;2023-03-01T03:19:16;5.40;56.40
63017;DHT22;50274;45.640;11.756;2023-03-01T03:21:42;5.40;56.50
63017;DHT22;50274;45.640;11.756;2023-03-01T03:24:08;5.40;56.50
63017;DHT22;50274;45.640;11.756;2023-03-01T03:26:34;5.40;56.50
63017;DHT22;50274;45.640;11.756;2023-03-01T03:29:00;5.40;56.60
63017;DHT22;50274;45.640;11.756;2023-03-01T03:31:26;5.40;56.60
63017;DHT22;50274;45.640;11.756;2023-03-01T03:33:52;5.40;56.70
63017;DHT22;50274;45.640;11.756;2023-03-01T03:36:20;5.40;56.70
63017;DHT22;50274;45.640;11.756;2023-03-01T03:38:47;5.40;56.70
63017;DHT22;50274;45.640;11.756;2023-03-01T03:41:13;5.40;56.70
63017;DHT22;50274;45.640;11.756;2023-03-01T03:43:40;5.50;56.70
63017;DHT22;50274;45.640;11.756;2023-03-01T03:46:08;5.50;56.60
63017;DHT22;50274;45.640;11.756;2023-03-01T03:48:37;5.50;56.70
63017;DHT22;50274;45.640;11.756;2023-03-01T03:51:03;5.50;56.70
63017;DHT22;50274;45.640;11.756;2023-03-01T03:53:31;5.50;56.60
63017;DHT22;50274;45.640;11.756;2023-03-01T03:55:57;5.50;56.70
63017;DHT22;50274;45.640;11.756;2023-03-01T03:58:24;5.50;56.70
63017;DHT22;50274;45.640;11.756;2023-03-01T04:00:56;5.50;56.70
63017;DHT22;50274;45.640;11.756;2023-03-01T04:03:23;5.50;56.70
63017;DHT22;50274;45.640;11.756;2023-03-01T04:05:50;5.50;56.80
63017;DHT22;50274;45.640;11.756;2023-03-01T04:08:17;5.40;56.80
63017;DHT22;50274;45.640;11.756;2023-03-01T04:10:47;5.40;56.80
63017;DHT22;50274;45.640;11.756;2023-03-01T04:13:16;5.40;56.90
63017;DHT22;50274;45.640;11.756;2023-03-01T04:15:42;5.40;56.90
63017;DHT22;50274;45.640;11.756;2023-03-01T04:18:10;5.40;56.90
63017;DHT22;50274;45.640;11.756;2023-03-01T04:20:37;5.30;57.00
63017;DHT22;50274;45.640;11.756;2023-03-01T04:23:12;5.30;57.00
63017;DHT22;50274;45.640;11.756;2023-03-01T04:28:22;5.30;57.00
63017;DHT22;50274;45.640;11.756;2023-03-01T04:30:50;5.30;57.10
63017;DHT22;50274;45.640;11.756;2023-03-01T04:33:16;5.30;57.10
63017;DHT22;50274;45.640;11.756;2023-03-01T04:35:42;5.30;57.10
63017;DHT22;50274;45.640;11.756;2023-03-01T04:38:08;5.30;57.10
63017;DHT22;50274;45.640;11.756;2023-03-01T04:40:34;5.30;57.20
63017;DHT22;50274;45.640;11.756;2023-03-01T04:43:01;5.30;57.20
63017;DHT22;50274;45.640;11.756;2023-03-01T04:45:27;5.30;57.10
63017;DHT22;50274;45.640;11.756;2023-03-01T04:47:53;5.30;57.10
63017;DHT22;50274;45.640;11.756;2023-03-01T04:50:19;5.30;57.10
63017;DHT22;50274;45.640;11.756;2023-03-01T04:52:49;5.30;57.20
63017;DHT22;50274;45.640;11.756;2023-03-01T04:55:15;5.30;57.10
63017;DHT22;50274;45.640;11.756;2023-03-01T04:57:41;5.30;57.10
63017;DHT22;50274;45.640;11.756;2023-03-01T05:00:10;5.30;57.20
63017;DHT22;50274;45.640;11.756;2023-03-01T05:03:00;5.30;57.20
63017;DHT22;50274;45.640;11.756;2023-03-01T05:05:28;5.30;57.20
63017;DHT22;50274;45.640;11.756;2023-03-01T05:07:57;5.30;57.10
63017;DHT22;50274;45.640;11.756;2023-03-01T05:10:27;5.30;57.10
63017;DHT22;50274;45.640;11.756;2023-03-01T05:12:55;5.30;57.10
63017;DHT22;50274;45.640;11.756;2023-03-01T05:15:23;5.40;57.10
63017;DHT22;50274;45.640;11.756;2023-03-01T05:17:51;5.40;57.00
63017;DHT22;50274;45.640;11.756;2023-03-01T05:20:18;5.40;57.00
63017;DHT22;50274;45.640;11.756;2023-03-01T05:22:49;5.40;57.00
63017;DHT22;50274;45.640;11.756;2023-03-01T05:25:15;5.40;56.90
63017;DHT22;50274;45.640;11.756;2023-03-01T05:27:41;5.40;57.00
63017;DHT22;50274;45.640;11.756;2023-03-01T05:30:08;5.30;56.90
63017;DHT22;50274;45.640;11.756;2023-03-01T05:32:48;5.40;56.90
63017;DHT22;50274;45.640;11.756;2023-03-01T05:35:16;5.30;56.90
63017;DHT22;50274;45.640;11.756;2023-03-01T05:37:47;5.30;56.80
63017;DHT22;50274;45.640;11.756;2023-03-01T05:40:15;5.30;56.70
63017;DHT22;50274;45.640;11.756;2023-03-01T05:42:47;5.30;56.80
63017;DHT22;50274;45.640;11.756;2023-03-01T05:45:14;5.30;56.80
63017;DHT22;50274;45.640;11.756;2023-03-01T05:47:42;5.40;56.80
63017;DHT22;50274;45.640;11.756;2023-03-01T05:50:29;5.40;56.80
63017;DHT22;50274;45.640;11.756;2023-03-01T05:53:02;5.40;56.90
63017;DHT22;50274;45.640;11.756;2023-03-01T05:55:30;5.50;57.00
63017;DHT22;50274;45.640;11.756;2023-03-01T05:58:04;5.50;57.10
63017;DHT22;50274;45.640;11.756;2023-03-01T06:00:30;5.50;57.20
63017;DHT22;50274;45.640;11.756;2023-03-01T06:02:57;5.50;57.30
63017;DHT22;50274;45.640;11.756;2023-03-01T06:05:24;5.50;57.50
63017;DHT22;50274;45.640;11.756;2023-03-01T06:07:51;5.50;57.30
63017;DHT22;50274;45.640;11.756;2023-03-01T06:10:18;5.50;57.40
63017;DHT22;50274;45.640;11.756;2023-03-01T06:12:45;5.60;57.60
63017;DHT22;50274;45.640;11.756;2023-03-01T06:15:14;5.60;57.80
63017;DHT22;50274;45.640;11.756;2023-03-01T06:17:42;5.60;57.80
63017;DHT22;50274;45.640;11.756;2023-03-01T06:20:29;5.70;57.90
63017;DHT22;50274;45.640;11.756;2023-03-01T06:22:55;5.70;58.20
63017;DHT22;50274;45.640;11.756;2023-03-01T06:25:30;5.70;58.10
63017;DHT22;50274;45.640;11.756;2023-03-01T06:27:56;5.70;58.20
63017;DHT22;50274;45.640;11.756;2023-03-01T06:30:24;5.70;58.00
63017;DHT22;50274;45.640;11.756;2023-03-01T06:32:51;5.70;57.90
63017;DHT22;50274;45.640;11.756;2023-03-01T06:35:37;5.80;57.80
63017;DHT22;50274;45.640;11.756;2023-03-01T06:38:28;5.80;57.80
63017;DHT22;50274;45.640;11.756;2023-03-01T06:40:56;5.90;57.80
63017;DHT22;50274;45.640;11.756;2023-03-01T06:43:23;5.90;58.00
63017;DHT22;50274;45.640;11.756;2023-03-01T06:45:49;5.90;57.80
63017;DHT22;50274;45.640;11.756;2023-03-01T06:48:15;5.90;57.80
63017;DHT22;50274;45.640;11.756;2023-03-01T06:50:41;5.90;57.70
63017;DHT22;50274;45.640;11.756;2023-03-01T06:53:07;6.00;57.80
63017;DHT22;50274;45.640;11.756;2023-03-01T06:55:33;6.00;57.60
63017;DHT22;50274;45.640;11.756;2023-03-01T06:58:00;6.10;57.70
63017;DHT22;50274;45.640;11.756;2023-03-01T07:00:27;6.10;57.60
63017;DHT22;50274;45.640;11.756;2023-03-01T07:02:53;6.10;57.50
63017;DHT22;50274;45.640;11.756;2023-03-01T07:05:19;6.20;57.50
63017;DHT22;50274;45.640;11.756;2023-03-01T07:07:45;6.20;57.50
63017;DHT22;50274;45.640;11.756;2023-03-01T07:10:12;6.20;57.40
63017;DHT22;50274;45.640;11.756;2023-03-01T07:12:38;6.30;57.40
63017;DHT22;50274;45.640;11.756;2023-03-01T07:15:04;6.30;57.40
63017;DHT22;50274;45.640;11.756;2023-03-01T07:17:31;6.30;57.40
63017;DHT22;50274;45.640;11.756;2023-03-01T07:19:57;6.40;57.50
63017;DHT22;50274;45.640;11.756;2023-03-01T07:22:22;6.40;57.50
63017;DHT22;50274;45.640;11.756;2023-03-01T07:24:48;6.50;57.50
63017;DHT22;50274;45.640;11.756;2023-03-01T07:27:14;6.50;57.60
63017;DHT22;50274;45.640;11.756;2023-03-01T07:29:40;6.50;57.50
63017;DHT22;50274;45.640;11.756;2023-03-01T07:32:06;6.60;57.60
63017;DHT22;50274;45.640;11.756;2023-03-01T07:34:32;6.70;57.50
63017;DHT22;50274;45.640;11.756;2023-03-01T07:36:58;6.70;57.70
63017;DHT22;50274;45.640;11.756;2023-03-01T07:39:24;6.80;57.50
63017;DHT22;50274;45.640;11.756;2023-03-01T07:41:50;6.90;57.30
63017;DHT22;50274;45.640;11.756;2023-03-01T07:44:16;6.90;57.30
63017;DHT22;50274;45.640;11.756;2023-03-01T07:46:43;7.00;57.10
63017;DHT22;50274;45.640;11.756;2023-03-01T07:49:09;7.00;57.10
63017;DHT22;50274;45.640;11.756;2023-03-01T07:51:35;7.10;57.10
63017;DHT22;50274;45.640;11.756;2023-03-01T07:54:01;7.20;57.00
63017;DHT22;50274;45.640;11.756;2023-03-01T07:56:27;7.20;56.90
63017;DHT22;50274;45.640;11.756;2023-03-01T07:58:53;7.40;56.60
63017;DHT22;50274;45.640;11.756;2023-03-01T08:01:20;7.50;56.30
63017;DHT22;50274;45.640;11.756;2023-03-01T08:03:47;7.60;56.10
63017;DHT22;50274;45.640;11.756;2023-03-01T08:06:16;7.70;55.70
63017;DHT22;50274;45.640;11.756;2023-03-01T08:08:43;7.70;55.60
63017;DHT22;50274;45.640;11.756;2023-03-01T08:11:11;7.80;55.20
63017;DHT22;50274;45.640;11.756;2023-03-01T08:13:38;7.80;54.90
63017;DHT22;50274;45.640;11.756;2023-03-01T08:16:06;7.80;54.80
63017;DHT22;50274;45.640;11.756;2023-03-01T08:18:32;7.90;54.90
63017;DHT22;50274;45.640;11.756;2023-03-01T08:21:05;7.90;55.10
63017;DHT22;50274;45.640;11.756;2023-03-01T08:23:32;7.90;54.90
63017;DHT22;50274;45.640;11.756;2023-03-01T08:26:19;8.00;55.50
63017;DHT22;50274;45.640;11.756;2023-03-01T08:28:46;8.00;54.20
63017;DHT22;50274;45.640;11.756;2023-03-01T08:31:21;8.10;53.70
63017;DHT22;50274;45.640;11.756;2023-03-01T08:33:49;8.10;53.20
63017;DHT22;50274;45.640;11.756;2023-03-01T08:36:28;8.20;53.30
63017;DHT22;50274;45.640;11.756;2023-03-01T08:38:55;8.30;53.20
63017;DHT22;50274;45.640;11.756;2023-03-01T08:41:21;8.30;52.60
63017;DHT22;50274;45.640;11.756;2023-03-01T08:43:46;8.30;52.60
63017;DHT22;50274;45.640;11.756;2023-03-01T08:46:13;8.30;52.60
63017;DHT22;50274;45.640;11.756;2023-03-01T08:48:40;8.30;52.40
63017;DHT22;50274;45.640;11.756;2023-03-01T08:51:10;8.30;52.30
63017;DHT22;50274;45.640;11.756;2023-03-01T08:53:36;8.30;52.40
63017;DHT22;50274;45.640;11.756;2023-03-01T08:56:03;8.30;52.40
63017;DHT22;50274;45.640;11.756;2023-03-01T08:58:29;8.30;52.50
63017;DHT22;50274;45.640;11.756;2023-03-01T09:00:56;8.40;52.50
63017;DHT22;50274;45.640;11.756;2023-03-01T09:03:23;8.40;52.50
63017;DHT22;50274;45.640;11.756;2023-03-01T09:05:50;8.50;52.50
63017;DHT22;50274;45.640;11.756;2023-03-01T09:08:16;8.50;52.80
63017;DHT22;50274;45.640;11.756;2023-03-01T09:10:43;8.60;51.90
63017;DHT22;50274;45.640;11.756;2023-03-01T09:13:09;8.70;51.50
63017;DHT22;50274;45.640;11.756;2023-03-01T09:15:38;8.80;51.30
63017;DHT22;50274;45.640;11.756;2023-03-01T09:18:05;8.90;50.70
63017;DHT22;50274;45.640;11.756;2023-03-01T09:20:31;8.90;50.90
63017;DHT22;50274;45.640;11.756;2023-03-01T09:22:58;9.00;50.90
63017;DHT22;50274;45.640;11.756;2023-03-01T09:25:25;9.10;50.70
63017;DHT22;50274;45.640;11.756;2023-03-01T09:27:52;9.30;50.20
63017;DHT22;50274;45.640;11.756;2023-03-01T09:30:18;9.60;50.00
63017;DHT22;50274;45.640;11.756;2023-03-01T09:32:44;9.90;49.80
63017;DHT22;50274;45.640;11.756;2023-03-01T09:35:11;10.20;49.60
63017;DHT22;50274;45.640;11.756;2023-03-01T09:37:38;10.40;48.50
63017;DHT22;50274;45.640;11.756;2023-03-01T09:40:15;10.50;48.50
63017;DHT22;50274;45.640;11.756;2023-03-01T09:43:41;10.60;48.30
63017;DHT22;50274;45.640;11.756;2023-03-01T09:45:44;10.70;47.70
63017;DHT22;50274;45.640;11.756;2023-03-01T09:48:18;10.70;47.40
63017;DHT22;50274;45.640;11.756;2023-03-01T09:50:45;10.70;47.40
63017;DHT22;50274;45.640;11.756;2023-03-01T09:53:25;10.70;47.00
63017;DHT22;50274;45.640;11.756;2023-03-01T09:56:02;10.70;46.70
63017;DHT22;50274;45.640;11.756;2023-03-01T09:58:53;10.70;46.80
63017;DHT22;50274;45.640;11.756;2023-03-01T10:09:41;11.10;47.20
63017;DHT22;50274;45.640;11.756;2023-03-01T10:12:17;11.50;46.30
63017;DHT22;50274;45.640;11.756;2023-03-01T10:15:19;11.60;46.30
63017;DHT22;50274;45.640;11.756;2023-03-01T10:17:57;11.70;45.00
63017;DHT22;50274;45.640;11.756;2023-03-01T10:20:33;11.70;45.00
63017;DHT22;50274;45.640;11.756;2023-03-01T10:23:02;11.80;44.50
63017;DHT22;50274;45.640;11.756;2023-03-01T10:30:52;11.80;44.30
63017;DHT22;50274;45.640;11.756;2023-03-01T10:33:22;11.80;44.50
63017;DHT22;50274;45.640;11.756;2023-03-01T10:35:49;11.70;44.70
63017;DHT22;50274;45.640;11.756;2023-03-01T10:38:16;11.60;44.80
63017;DHT22;50274;45.640;11.756;2023-03-01T10:40:57;11.50;45.20
63017;DHT22;50274;45.640;11.756;2023-03-01T10:43:32;11.60;45.60
63017;DHT22;50274;45.640;11.756;2023-03-01T10:46:22;11.50;46.00
63017;DHT22;50274;45.640;11.756;2023-03-01T10:49:06;11.60;46.00
63017;DHT22;50274;45.640;11.756;2023-03-01T10:51:33;11.60;46.20
63017;DHT22;50274;45.640;11.756;2023-03-01T10:53:59;11.60;46.20
63017;DHT22;50274;45.640;11.756;2023-03-01T10:56:24;11.60;45.90
63017;DHT22;50274;45.640;11.756;2023-03-01T10:59:02;11.60;46.10
63017;DHT22;50274;45.640;11.756;2023-03-01T11:01:35;11.60;46.60
63017;DHT22;50274;45.640;11.756;2023-03-01T11:06:34;11.50;46.50
63017;DHT22;50274;45.640;11.756;2023-03-01T11:09:29;11.50;46.70
63017;DHT22;50274;45.640;11.756;2023-03-01T11:11:59;11.50;46.80
63017;DHT22;50274;45.640;11.756;2023-03-01T11:14:50;11.40;47.10
63017;DHT22;50274;45.640;11.756;2023-03-01T11:17:29;11.30;47.40
63017;DHT22;50274;45.640;11.756;2023-03-01T11:22:49;11.30;47.40
63017;DHT22;50274;45.640;11.756;2023-03-01T11:25:17;11.20;47.90
63017;DHT22;50274;45.640;11.756;2023-03-01T11:27:45;11.20;48.10
63017;DHT22;50274;45.640;11.756;2023-03-01T11:30:22;11.20;48.80
63017;DHT22;50274;45.640;11.756;2023-03-01T11:35:27;11.30;49.20
63017;DHT22;50274;45.640;11.756;2023-03-01T11:38:19;11.30;46.40
63017;DHT22;50274;45.640;11.756;2023-03-01T11:46:40;11.20;45.90
63017;DHT22;50274;45.640;11.756;2023-03-01T12:00:37;11.20;46.40
63017;DHT22;50274;45.640;11.756;2023-03-01T12:06:14;11.20;46.50
63017;DHT22;50274;45.640;11.756;2023-03-01T12:08:55;11.20;45.90
63017;DHT22;50274;45.640;11.756;2023-03-01T12:11:35;11.20;46.00
63017;DHT22;50274;45.640;11.756;2023-03-01T12:31:00;10.70;46.60
63017;DHT22;50274;45.640;11.756;2023-03-01T12:33:58;10.70;47.00
63017;DHT22;50274;45.640;11.756;2023-03-01T12:39:32;10.60;47.90
63017;DHT22;50274;45.640;11.756;2023-03-01T12:42:16;10.50;48.00
63017;DHT22;50274;45.640;11.756;2023-03-01T12:47:28;10.60;47.20
63017;DHT22;50274;45.640;11.756;2023-03-01T12:50:04;10.60;47.10
63017;DHT22;50274;45.640;11.756;2023-03-01T12:52:41;10.50;47.30
63017;DHT22;50274;45.640;11.756;2023-03-01T13:03:38;10.40;48.10
63017;DHT22;50274;45.640;11.756;2023-03-01T13:11:29;10.30;49.20
63017;DHT22;50274;45.640;11.756;2023-03-01T13:16:46;10.30;51.10
63017;DHT22;50274;45.640;11.756;2023-03-01T13:21:51;10.10;52.70
63017;DHT22;50274;45.640;11.756;2023-03-01T13:32:29;9.70;58.80
63017;DHT22;50274;45.640;11.756;2023-03-01T13:37:46;9.50;60.40
63017;DHT22;50274;45.640;11.756;2023-03-01T13:42:46;9.30;60.90
63017;DHT22;50274;45.640;11.756;2023-03-01T13:45:40;9.20;61.60
63017;DHT22;50274;45.640;11.756;2023-03-01T13:48:26;9.10;62.00
63017;DHT22;50274;45.640;11.756;2023-03-01T13:51:05;9.10;61.90
63017;DHT22;50274;45.640;11.756;2023-03-01T13:53:36;9.10;62.60
63017;DHT22;50274;45.640;11.756;2023-03-01T13:56:46;9.10;62.70
63017;DHT22;50274;45.640;11.756;2023-03-01T13:59:04;9.10;62.60
63017;DHT22;50274;45.640;11.756;2023-03-01T14:01:35;9.10;62.90
63017;DHT22;50274;45.640;11.756;2023-03-01T14:06:46;9.10;62.20
63017;DHT22;50274;45.640;11.756;2023-03-01T14:09:20;9.10;62.40
63017;DHT22;50274;45.640;11.756;2023-03-01T14:14:51;9.20;62.30
63017;DHT22;50274;45.640;11.756;2023-03-01T14:17:30;9.20;62.40
63017;DHT22;50274;45.640;11.756;2023-03-01T14:20:25;9.20;62.40
63017;DHT22;50274;45.640;11.756;2023-03-01T14:22:59;9.30;61.90
63017;DHT22;50274;45.640;11.756;2023-03-01T14:25:29;9.30;61.70
63017;DHT22;50274;45.640;11.756;2023-03-01T14:30:33;9.30;61.50
63017;DHT22;50274;45.640;11.756;2023-03-01T14:33:02;9.40;62.30
63017;DHT22;50274;45.640;11.756;2023-03-01T14:35:31;9.40;61.70
63017;DHT22;50274;45.640;11.756;2023-03-01T14:37:58;9.40;61.50
63017;DHT22;50274;45.640;11.756;2023-03-01T14:40:28;9.50;61.40
63017;DHT22;50274;45.640;11.756;2023-03-01T14:42:59;9.40;61.50
63017;DHT22;50274;45.640;11.756;2023-03-01T14:45:28;9.50;61.60
63017;DHT22;50274;45.640;11.756;2023-03-01T14:48:00;9.50;61.60
63017;DHT22;50274;45.640;11.756;2023-03-01T14:50:32;9.50;61.70
63017;DHT22;50274;45.640;11.756;2023-03-01T14:53:03;9.50;61.70
63017;DHT22;50274;45.640;11.756;2023-03-01T14:55:36;9.60;61.90
63017;DHT22;50274;45.640;11.756;2023-03-01T14:58:05;9.60;61.60
63017;DHT22;50274;45.640;11.756;2023-03-01T15:00:32;9.60;61.60
63017;DHT22;50274;45.640;11.756;2023-03-01T15:03:07;9.60;61.50
63017;DHT22;50274;45.640;11.756;2023-03-01T15:05:39;9.60;61.40
63017;DHT22;50274;45.640;11.756;2023-03-01T15:08:06;9.60;61.30
63017;DHT22;50274;45.640;11.756;2023-03-01T15:10:35;9.60;61.30
63017;DHT22;50274;45.640;11.756;2023-03-01T15:13:22;9.60;61.20
63017;DHT22;50274;45.640;11.756;2023-03-01T15:15:49;9.60;61.10
63017;DHT22;50274;45.640;11.756;2023-03-01T15:18:25;9.70;61.30
63017;DHT22;50274;45.640;11.756;2023-03-01T15:20:52;9.70;61.20
63017;DHT22;50274;45.640;11.756;2023-03-01T15:25:48;9.60;60.80
63017;DHT22;50274;45.640;11.756;2023-03-01T15:28:25;9.60;60.70
63017;DHT22;50274;45.640;11.756;2023-03-01T15:30:58;9.60;60.70
63017;DHT22;50274;45.640;11.756;2023-03-01T15:33:27;9.60;60.60
63017;DHT22;50274;45.640;11.756;2023-03-01T15:35:57;9.60;60.50
63017;DHT22;50274;45.640;11.756;2023-03-01T15:38:50;9.60;60.50
63017;DHT22;50274;45.640;11.756;2023-03-01T15:41:27;9.60;60.40
63017;DHT22;50274;45.640;11.756;2023-03-01T15:43:53;9.70;60.30
63017;DHT22;50274;45.640;11.756;2023-03-01T15:46:23;9.60;60.30
63017;DHT22;50274;45.640;11.756;2023-03-01T15:48:53;9.60;60.20
63017;DHT22;50274;45.640;11.756;2023-03-01T15:51:36;9.60;60.20
63017;DHT22;50274;45.640;11.756;2023-03-01T15:54:17;9.60;60.20
63017;DHT22;50274;45.640;11.756;2023-03-01T15:56:43;9.60;60.10
63017;DHT22;50274;45.640;11.756;2023-03-01T15:59:11;9.60;60.10
63017;DHT22;50274;45.640;11.756;2023-03-01T16:01:44;9.60;60.20
63017;DHT22;50274;45.640;11.756;2023-03-01T16:04:15;9.60;60.30
63017;DHT22;50274;45.640;11.756;2023-03-01T16:06:46;9.60;60.30
63017;DHT22;50274;45.640;11.756;2023-03-01T16:09:21;9.60;60.20
63017;DHT22;50274;45.640;11.756;2023-03-01T16:11:49;9.60;60.40
63017;DHT22;50274;45.640;11.756;2023-03-01T16:14:15;9.60;60.40
63017;DHT22;50274;45.640;11.756;2023-03-01T16:16:43;9.60;60.00
63017;DHT22;50274;45.640;11.756;2023-03-01T16:19:10;9.60;60.00
63017;DHT22;50274;45.640;11.756;2023-03-01T16:21:36;9.60;60.10
63017;DHT22;50274;45.640;11.756;2023-03-01T16:24:06;9.60;60.30
63017;DHT22;50274;45.640;11.756;2023-03-01T16:26:32;9.50;60.70
63017;DHT22;50274;45.640;11.756;2023-03-01T16:28:58;9.50;60.90
63017;DHT22;50274;45.640;11.756;2023-03-01T16:31:24;9.40;61.00
63017;DHT22;50274;45.640;11.756;2023-03-01T16:34:02;9.40;61.40
63017;DHT22;50274;45.640;11.756;2023-03-01T16:36:30;9.40;61.90
63017;DHT22;50274;45.640;11.756;2023-03-01T16:39:00;9.30;62.90
63017;DHT22;50274;45.640;11.756;2023-03-01T16:41:27;9.30;63.30
63017;DHT22;50274;45.640;11.756;2023-03-01T16:43:53;9.30;63.70
63017;DHT22;50274;45.640;11.756;2023-03-01T16:46:25;9.20;64.00
63017;DHT22;50274;45.640;11.756;2023-03-01T16:48:52;9.20;64.20
63017;DHT22;50274;45.640;11.756;2023-03-01T16:51:19;9.10;65.00
63017;DHT22;50274;45.640;11.756;2023-03-01T16:53:49;9.10;65.30
63017;DHT22;50274;45.640;11.756;2023-03-01T16:56:21;9.10;65.30
63017;DHT22;50274;45.640;11.756;2023-03-01T16:58:47;9.00;65.80
63017;DHT22;50274;45.640;11.756;2023-03-01T17:01:18;8.90;65.60
63017;DHT22;50274;45.640;11.756;2023-03-01T17:03:45;8.90;65.60
63017;DHT22;50274;45.640;11.756;2023-03-01T17:06:14;8.80;65.70
63017;DHT22;50274;45.640;11.756;2023-03-01T17:08:41;8.80;65.60
63017;DHT22;50274;45.640;11.756;2023-03-01T17:11:12;8.80;65.80
63017;DHT22;50274;45.640;11.756;2023-03-01T17:13:38;8.80;65.80
63017;DHT22;50274;45.640;11.756;2023-03-01T17:16:10;8.80;66.00
63017;DHT22;50274;45.640;11.756;2023-03-01T17:18:36;8.70;66.70
63017;DHT22;50274;45.640;11.756;2023-03-01T17:21:03;8.70;66.40
63017;DHT22;50274;45.640;11.756;2023-03-01T17:23:30;8.70;66.70
63017;DHT22;50274;45.640;11.756;2023-03-01T17:25:57;8.70;66.70
63017;DHT22;50274;45.640;11.756;2023-03-01T17:28:25;8.70;66.70
63017;DHT22;50274;45.640;11.756;2023-03-01T17:30:51;8.70;67.10
63017;DHT22;50274;45.640;11.756;2023-03-01T17:33:18;8.70;67.40
63017;DHT22;50274;45.640;11.756;2023-03-01T17:35:44;8.70;68.40
63017;DHT22;50274;45.640;11.756;2023-03-01T17:38:14;8.70;68.80
63017;DHT22;50274;45.640;11.756;2023-03-01T17:40:41;8.70;69.20
63017;DHT22;50274;45.640;11.756;2023-03-01T17:43:08;8.60;69.00
63017;DHT22;50274;45.640;11.756;2023-03-01T17:45:38;8.60;69.10
63017;DHT22;50274;45.640;11.756;2023-03-01T17:48:05;8.60;69.70